Time;durP1;ratioP1;P1;durP2;ratioP2;P2;SDS_P1;SDS_P2;PMS_P1;PMS_P2;Temp;Humidity;BMP_temperature;BMP_pressure;BME280_temperature;BME280_humidity;BME280_pressure;Samples;Min_cycle;Max_cycle;Signal;HPM_P1;HPM_P2
2023/06/09 05:00:28;;;;;;;12.00;11.00;;;17.60;97.20;;;;;;1714035;28;20182;-69
2023/06/09 05:01:21;;;;;;;11.63;10.63;;;17.60;97.20;;;;;;1713901;28;20205;-70
2023/06/09 05:02:13;;;;;;;11.90;10.82;;;17.60;97.20;;;;;;1713975;28;20252;-70
2023/06/09 05:03:04;;;;;;;11.18;10.27;;;17.60;97.20;;;;;;1713429;28;20206;-70
2023/06/09 05:03:56;;;;;;;11.77;10.67;;;17.70;97.20;;;;;;1711899;28;20281;-70
2023/06/09 05:04:47;;;;;;;11.73;10.73;;;17.70;97.20;;;;;;1711748;28;20660;-68
2023/06/09 05:05:39;;;;;;;11.60;10.60;;;17.70;97.20;;;;;;1713796;28;20537;-69
2023/06/09 05:06:30;;;;;;;10.85;9.95;;;17.70;97.20;;;;;;1710760;28;20661;-69
2023/06/09 05:07:23;;;;;;;11.70;10.77;;;17.70;97.20;;;;;;1709038;28;20688;-68
2023/06/09 05:08:14;;;;;;;11.38;10.38;;;17.70;97.20;;;;;;1705877;28;20462;-69
2023/06/09 05:09:07;;;;;;;11.20;10.30;;;17.80;97.20;;;;;;1712553;28;20284;-69
2023/06/09 05:09:57;;;;;;;10.93;10.02;;;17.80;97.20;;;;;;1713468;28;20216;-69
2023/06/09 05:10:50;;;;;;;10.50;9.70;;;17.80;97.20;;;;;;1713382;28;20313;-69
2023/06/09 05:11:40;;;;;;;11.45;10.55;;;17.90;97.20;;;;;;1710220;28;20215;-69
2023/06/09 05:12:32;;;;;;;11.30;10.20;;;17.90;97.20;;;;;;1712372;28;20193;-69
2023/06/09 05:13:23;;;;;;;11.77;10.75;;;17.90;97.20;;;;;;1713296;28;20212;-69
2023/06/09 05:14:15;;;;;;;10.93;9.90;;;18.00;97.20;;;;;;1713569;28;20664;-69
2023/06/09 05:15:07;;;;;;;12.23;11.00;;;18.00;97.20;;;;;;1713372;28;20209;-69
2023/06/09 05:16:00;;;;;;;10.65;9.65;;;18.00;97.20;;;;;;1713421;28;20687;-69
2023/06/09 05:16:53;;;;;;;11.60;10.70;;;18.10;97.20;;;;;;1712975;28;20217;-69
2023/06/09 05:17:45;;;;;;;10.77;9.80;;;18.10;97.20;;;;;;1713503;28;20682;-69
2023/06/09 05:18:36;;;;;;;12.05;10.93;;;18.10;97.20;;;;;;1713457;28;20197;-69
2023/06/09 05:19:27;;;;;;;10.83;9.93;;;18.20;97.20;;;;;;1713430;28;20197;-69
2023/06/09 05:20:18;;;;;;;10.98;9.73;;;18.20;97.20;;;;;;1713351;28;20209;-69
2023/06/09 05:21:12;;;;;;;11.45;10.45;;;18.20;97.20;;;;;;1713352;28;20194;-69
2023/06/09 05:22:03;;;;;;;11.00;9.90;;;18.30;97.20;;;;;;1708935;28;20199;-69
2023/06/09 05:22:54;;;;;;;10.32;9.40;;;18.30;97.20;;;;;;1713462;28;20237;-69
2023/06/09 05:23:45;;;;;;;11.63;10.57;;;18.40;97.20;;;;;;1713477;28;20701;-69
2023/06/09 05:24:37;;;;;;;12.27;11.23;;;18.40;97.20;;;;;;1713590;28;20664;-69
2023/06/09 05:25:27;;;;;;;12.10;11.10;;;18.40;97.20;;;;;;1713421;28;20213;-69
2023/06/09 05:26:19;;;;;;;12.00;11.00;;;18.40;97.20;;;;;;1713439;28;20198;-69
2023/06/09 05:27:10;;;;;;;11.85;10.95;;;18.40;97.20;;;;;;1713015;28;20213;-69
2023/06/09 05:28:02;;;;;;;13.97;10.30;;;18.40;97.20;;;;;;1713335;28;20208;-69
2023/06/09 05:28:53;;;;;;;11.60;10.50;;;18.50;97.20;;;;;;1713488;28;20460;-68
2023/06/09 05:29:44;;;;;;;10.93;9.80;;;18.50;97.20;;;;;;1713523;28;20216;-68
2023/06/09 05:30:35;;;;;;;10.77;9.73;;;18.50;97.20;;;;;;1713135;28;20229;-68
2023/06/09 05:31:29;;;;;;;11.00;10.10;;;18.50;97.20;;;;;;1711702;28;20194;-69
2023/06/09 05:32:20;;;;;;;12.13;11.02;;;18.60;97.20;;;;;;1711346;28;20225;-69
2023/06/09 05:33:12;;;;;;;11.43;10.53;;;18.60;97.20;;;;;;1713665;28;20237;-68
2023/06/09 05:34:02;;;;;;;11.95;10.95;;;18.60;97.20;;;;;;1713370;28;20630;-68
2023/06/09 05:34:54;;;;;;;10.70;9.70;;;18.70;97.20;;;;;;1713606;28;20201;-68
2023/06/09 05:35:47;;;;;;;10.77;9.80;;;18.70;97.20;;;;;;1713463;28;20206;-68
2023/06/09 05:36:38;;;;;;;10.85;9.95;;;18.70;97.20;;;;;;1713508;28;20618;-68
2023/06/09 05:37:29;;;;;;;11.05;10.07;;;18.70;97.20;;;;;;1713000;28;20205;-68
2023/06/09 05:38:23;;;;;;;10.63;9.63;;;18.70;97.20;;;;;;1713363;28;20204;-68
2023/06/09 05:39:14;;;;;;;10.65;9.75;;;18.80;97.20;;;;;;1713433;28;20210;-68
2023/06/09 05:40:07;;;;;;;10.00;9.10;;;18.80;97.20;;;;;;1713371;28;20240;-68
2023/06/09 05:40:58;;;;;;;12.20;11.13;;;18.80;97.20;;;;;;1713368;28;20275;-68
2023/06/09 05:41:50;;;;;;;9.87;9.07;;;18.90;97.20;;;;;;1712080;28;20268;-68
2023/06/09 05:42:40;;;;;;;11.65;10.73;;;18.80;97.20;;;;;;1713091;28;20204;-69
2023/06/09 05:43:32;;;;;;;10.37;9.57;;;18.80;97.20;;;;;;1713517;28;20213;-68
2023/06/09 05:44:23;;;;;;;11.18;9.95;;;18.80;97.20;;;;;;1713441;28;20206;-69
2023/06/09 05:45:15;;;;;;;11.33;10.33;;;18.80;97.20;;;;;;1713410;28;20206;-69
2023/06/09 05:46:06;;;;;;;10.05;9.25;;;18.80;97.20;;;;;;1713286;28;20233;-69
2023/06/09 05:46:59;;;;;;;9.75;8.90;;;18.80;97.20;;;;;;1712893;28;20789;-69
2023/06/09 05:47:50;;;;;;;10.40;9.60;;;18.80;97.20;;;;;;1713380;28;20210;-69
2023/06/09 05:48:42;;;;;;;11.13;10.03;;;18.80;97.20;;;;;;1713375;28;20194;-69
2023/06/09 05:49:33;;;;;;;9.57;8.80;;;18.80;97.20;;;;;;1713424;28;20201;-69
2023/06/09 05:50:25;;;;;;;11.23;10.20;;;18.80;97.20;;;;;;1713436;28;20205;-69
2023/06/09 05:51:16;;;;;;;10.30;9.20;;;18.80;97.20;;;;;;1713511;28;20672;-69
2023/06/09 05:52:08;;;;;;;14.40;10.05;;;18.80;97.20;;;;;;1713013;28;20233;-69
2023/06/09 05:52:59;;;;;;;10.63;9.65;;;18.80;97.20;;;;;;1713379;28;20237;-69
2023/06/09 05:53:53;;;;;;;10.77;9.83;;;18.80;97.20;;;;;;1713262;28;20246;-69
2023/06/09 05:54:47;;;;;;;11.55;10.32;;;18.80;97.20;;;;;;1713101;28;20457;-69
2023/06/09 05:55:40;;;;;;;10.18;9.38;;;18.80;97.20;;;;;;1713160;28;20699;-69
2023/06/09 05:56:37;;;;;;;10.40;9.20;;;18.80;97.20;;;;;;1710186;28;20301;-69
2023/06/09 05:57:29;;;;;;;14.10;9.85;;;18.80;97.20;;;;;;1711480;28;20201;-69
2023/06/09 05:58:20;;;;;;;10.50;9.50;;;18.80;97.20;;;;;;1713349;28;20237;-68
2023/06/09 05:59:13;;;;;;;11.17;10.00;;;18.90;97.20;;;;;;1713447;28;20209;-69
2023/06/09 06:00:09;;;;;;;10.68;9.68;;;18.90;97.20;;;;;;1713353;28;20727;-69
2023/06/09 06:01:03;;;;;;;13.80;9.35;;;18.90;97.20;;;;;;1713345;28;20226;-68
2023/06/09 06:01:53;;;;;;;10.20;9.30;;;18.90;97.20;;;;;;1713360;28;20210;-69
2023/06/09 06:02:47;;;;;;;9.80;9.00;;;18.90;97.20;;;;;;1713227;28;20221;-69
2023/06/09 06:03:38;;;;;;;10.88;9.85;;;18.90;97.20;;;;;;1713414;28;20209;-69
2023/06/09 06:04:30;;;;;;;10.05;9.15;;;18.90;97.20;;;;;;1711373;28;20201;-68
2023/06/09 06:05:21;;;;;;;10.73;9.60;;;18.90;97.20;;;;;;1713369;28;20229;-68
2023/06/09 06:06:13;;;;;;;9.80;8.90;;;19.00;97.20;;;;;;1713345;28;20201;-68
2023/06/09 06:07:04;;;;;;;10.20;9.18;;;19.00;97.20;;;;;;1709211;28;20457;-69
2023/06/09 06:07:57;;;;;;;12.20;9.98;;;19.00;97.20;;;;;;1713365;28;20825;-70
2023/06/09 06:08:48;;;;;;;9.85;8.85;;;19.10;97.20;;;;;;1713343;28;20206;-69
2023/06/09 06:09:39;;;;;;;11.13;8.67;;;19.10;97.20;;;;;;1713445;28;20200;-68
2023/06/09 06:10:30;;;;;;;11.93;9.07;;;19.20;97.20;;;;;;1714484;28;20579;-68
2023/06/09 06:11:22;;;;;;;18.03;10.10;;;19.20;97.20;;;;;;1714611;28;20297;-68
2023/06/09 06:12:12;;;;;;;11.48;9.18;;;19.30;97.20;;;;;;1714784;28;20222;-69
2023/06/09 06:13:04;;;;;;;11.53;8.60;;;19.30;97.20;;;;;;1714561;28;20206;-69
2023/06/09 06:13:55;;;;;;;10.25;8.43;;;19.40;97.20;;;;;;1714464;28;20206;-68
2023/06/09 06:14:46;;;;;;;12.97;8.83;;;19.40;97.20;;;;;;1707860;28;20194;-67
2023/06/09 06:15:37;;;;;;;12.70;8.80;;;19.50;97.20;;;;;;1707926;29;20603;-67
2023/06/09 06:16:29;;;;;;;14.70;9.10;;;19.50;97.20;;;;;;1708465;28;20600;-67
2023/06/09 06:17:20;;;;;;;9.55;8.57;;;19.60;97.20;;;;;;1709222;28;20206;-68
2023/06/09 06:18:13;;;;;;;9.60;8.60;;;19.60;97.20;;;;;;1708821;28;20205;-70
2023/06/09 06:19:04;;;;;;;13.30;9.77;;;19.70;97.20;;;;;;1714261;28;20220;-70
2023/06/09 06:19:56;;;;;;;15.60;10.03;;;19.70;97.20;;;;;;1714526;28;20228;-70
2023/06/09 06:20:47;;;;;;;14.13;9.15;;;19.70;97.20;;;;;;1714473;28;20230;-67
2023/06/09 06:21:41;;;;;;;11.43;8.33;;;19.80;97.20;;;;;;1714183;28;20313;-68
2023/06/09 06:22:31;;;;;;;12.07;8.30;;;19.80;97.20;;;;;;1714369;28;20194;-67
2023/06/09 06:23:23;;;;;;;12.30;8.50;;;19.90;97.20;;;;;;1714417;28;20742;-68
2023/06/09 06:24:14;;;;;;;17.50;10.82;;;19.90;97.20;;;;;;1714463;28;20459;-67
2023/06/09 06:25:06;;;;;;;20.37;10.53;;;20.00;97.20;;;;;;1714470;28;20282;-67
2023/06/09 06:25:57;;;;;;;15.18;9.32;;;20.00;97.20;;;;;;1714408;28;20213;-67
2023/06/09 06:26:49;;;;;;;13.55;9.15;;;20.10;97.20;;;;;;1711464;28;20203;-67
2023/06/09 06:27:40;;;;;;;9.48;8.60;;;20.10;97.20;;;;;;1707528;28;20258;-67
2023/06/09 06:28:32;;;;;;;16.63;9.40;;;20.20;97.20;;;;;;1707741;29;20564;-67
2023/06/09 06:29:23;;;;;;;17.27;9.82;;;20.20;97.20;;;;;;1710213;28;20651;-67
2023/06/09 06:30:15;;;;;;;19.17;9.40;;;20.30;97.20;;;;;;1711485;28;20852;-67
2023/06/09 06:31:06;;;;;;;10.85;8.55;;;20.30;97.20;;;;;;1713402;28;20220;-67
2023/06/09 06:31:57;;;;;;;23.63;10.70;;;20.30;97.20;;;;;;1707739;29;20207;-68
2023/06/09 06:32:49;;;;;;;16.27;9.85;;;20.40;97.20;;;;;;1707638;29;20285;-67
2023/06/09 06:33:42;;;;;;;19.17;10.45;;;20.40;97.20;;;;;;1707693;29;20206;-67
2023/06/09 06:34:33;;;;;;;24.92;9.57;;;20.50;97.20;;;;;;1707558;28;20205;-67
2023/06/09 06:35:25;;;;;;;17.87;9.37;;;20.50;97.20;;;;;;1709963;28;20196;-67
2023/06/09 06:36:21;;;;;;;19.50;9.23;;;20.50;97.20;;;;;;1713966;28;20206;-67
2023/06/09 06:37:12;;;;;;;34.85;10.10;;;20.60;97.20;;;;;;1710647;28;20205;-67
2023/06/09 06:38:03;;;;;;;19.00;10.30;;;20.60;97.20;;;;;;1714225;28;20205;-67
2023/06/09 06:38:55;;;;;;;19.60;9.40;;;20.70;97.20;;;;;;1714512;28;20206;-67
2023/06/09 06:39:46;;;;;;;21.10;9.63;;;20.70;97.20;;;;;;1714400;28;20210;-67
2023/06/09 06:40:37;;;;;;;24.23;9.60;;;20.80;97.20;;;;;;1714024;28;20224;-67
2023/06/09 06:41:28;;;;;;;42.95;11.63;;;20.80;97.20;;;;;;1712977;28;20208;-67
2023/06/09 06:42:20;;;;;;;39.93;10.40;;;20.90;97.20;;;;;;1714175;28;20208;-69
2023/06/09 06:43:10;;;;;;;24.50;10.50;;;20.90;97.20;;;;;;1714075;28;20209;-70
2023/06/09 06:44:02;;;;;;;10.27;8.60;;;21.00;97.20;;;;;;1713992;28;20198;-67
2023/06/09 06:44:53;;;;;;;23.55;10.13;;;21.10;97.20;;;;;;1714087;28;20714;-68
2023/06/09 06:45:45;;;;;;;18.10;9.97;;;21.10;97.20;;;;;;1714046;28;20320;-67
2023/06/09 06:46:36;;;;;;;26.45;9.27;;;21.20;97.20;;;;;;1713481;28;20202;-68
2023/06/09 06:47:27;;;;;;;23.17;9.97;;;21.20;97.20;;;;;;1714023;28;20264;-68
2023/06/09 06:48:18;;;;;;;14.45;9.65;;;21.30;97.20;;;;;;1713887;28;20213;-67
2023/06/09 06:49:11;;;;;;;15.43;8.70;;;21.30;97.20;;;;;;1713222;28;20216;-68
2023/06/09 06:50:02;;;;;;;14.48;8.93;;;21.40;97.20;;;;;;1713968;28;20705;-68
2023/06/09 06:50:54;;;;;;;24.57;9.50;;;21.40;97.20;;;;;;1713947;28;20714;-67
2023/06/09 06:51:44;;;;;;;21.67;8.85;;;21.50;97.20;;;;;;1713690;28;20477;-67
2023/06/09 06:52:36;;;;;;;9.33;7.90;;;21.50;97.20;;;;;;1713578;28;20226;-68
2023/06/09 06:53:27;;;;;;;13.02;8.50;;;21.50;97.20;;;;;;1714114;28;20205;-68
2023/06/09 06:54:19;;;;;;;22.57;9.70;;;21.60;97.20;;;;;;1714041;28;20208;-68
2023/06/09 06:55:10;;;;;;;15.02;8.98;;;21.60;97.20;;;;;;1713940;28;20797;-68
2023/06/09 06:56:01;;;;;;;16.98;9.18;;;21.70;97.20;;;;;;1713892;28;20198;-68
2023/06/09 06:56:52;;;;;;;20.10;9.95;;;21.70;97.20;;;;;;1713727;28;20210;-67
2023/06/09 06:57:44;;;;;;;16.17;8.97;;;21.70;97.20;;;;;;1713695;28;20651;-68
2023/06/09 06:58:35;;;;;;;9.85;8.30;;;21.80;97.20;;;;;;1713843;28;20248;-68
2023/06/09 06:59:27;;;;;;;14.93;8.85;;;21.80;97.20;;;;;;1713904;28;20198;-68
2023/06/09 07:00:18;;;;;;;15.00;8.57;;;21.80;97.20;;;;;;1713582;28;20210;-68
2023/06/09 07:01:10;;;;;;;10.18;8.30;;;21.90;97.20;;;;;;1713912;28;20241;-68
2023/06/09 07:02:01;;;;;;;11.05;8.35;;;21.90;97.20;;;;;;1713589;28;20221;-68
2023/06/09 07:02:52;;;;;;;9.37;8.57;;;21.90;97.20;;;;;;1713980;28;20194;-68
2023/06/09 07:03:45;;;;;;;12.63;8.23;;;21.90;97.20;;;;;;1714200;28;20579;-68
2023/06/09 07:04:38;;;;;;;8.85;7.95;;;22.00;97.20;;;;;;1714618;28;20198;-68
2023/06/09 07:05:29;;;;;;;8.80;8.00;;;22.00;97.20;;;;;;1714513;28;20206;-68
2023/06/09 07:06:21;;;;;;;10.20;8.23;;;22.00;97.20;;;;;;1714547;28;20210;-68
2023/06/09 07:07:11;;;;;;;14.43;8.55;;;22.10;97.20;;;;;;1714126;28;20608;-68
2023/06/09 07:08:03;;;;;;;11.60;8.00;;;22.10;97.20;;;;;;1714462;28;20224;-68
2023/06/09 07:08:55;;;;;;;9.02;8.20;;;22.10;97.20;;;;;;1714613;28;20206;-67
2023/06/09 07:09:47;;;;;;;18.27;8.95;;;22.20;97.20;;;;;;1714409;28;20210;-68
2023/06/09 07:10:37;;;;;;;15.75;8.30;;;22.20;97.20;;;;;;1714370;28;20237;-68
2023/06/09 07:11:29;;;;;;;16.70;8.60;;;22.20;97.20;;;;;;1714391;28;20208;-68
2023/06/09 07:12:21;;;;;;;10.13;8.27;;;22.30;97.20;;;;;;1714127;28;20674;-68
2023/06/09 07:13:13;;;;;;;19.48;7.95;;;22.30;97.20;;;;;;1714550;28;20501;-68
2023/06/09 07:14:03;;;;;;;13.68;8.75;;;22.40;97.20;;;;;;1714486;28;20205;-67
2023/06/09 07:14:56;;;;;;;17.07;8.10;;;22.40;97.20;;;;;;1714521;28;20206;-68
2023/06/09 07:15:46;;;;;;;25.48;8.50;;;22.40;97.20;;;;;;1714525;28;20609;-68
2023/06/09 07:16:38;;;;;;;33.90;9.93;;;22.50;97.20;;;;;;1714287;28;20272;-68
2023/06/09 07:17:29;;;;;;;31.02;9.77;;;22.50;97.20;;;;;;1714261;28;20202;-68
2023/06/09 07:18:21;;;;;;;23.30;9.05;;;22.60;97.20;;;;;;1714399;28;20668;-68
2023/06/09 07:19:12;;;;;;;21.42;8.25;;;22.60;97.20;;;;;;1714464;28;20212;-68
2023/06/09 07:20:06;;;;;;;15.53;8.10;;;22.70;97.20;;;;;;1714526;28;20218;-68
2023/06/09 07:20:57;;;;;;;10.00;7.15;;;22.70;97.20;;;;;;1713979;28;20230;-68
2023/06/09 07:21:49;;;;;;;37.97;10.70;;;22.70;97.20;;;;;;1714134;28;20202;-68
2023/06/09 07:22:40;;;;;;;21.23;8.65;;;22.80;97.20;;;;;;1714386;28;20230;-68
2023/06/09 07:23:31;;;;;;;29.23;9.30;;;22.80;97.20;;;;;;1714418;28;20201;-68
2023/06/09 07:24:22;;;;;;;27.33;9.48;;;22.90;97.20;;;;;;1714329;28;20464;-68
2023/06/09 07:25:14;;;;;;;14.40;8.47;;;22.90;97.20;;;;;;1714462;28;20244;-68
2023/06/09 07:26:05;;;;;;;27.15;8.35;;;22.90;97.20;;;;;;1714120;28;20213;-68
2023/06/09 07:26:57;;;;;;;22.80;8.67;;;23.00;97.20;;;;;;1714266;28;20664;-68
2023/06/09 07:27:47;;;;;;;19.38;8.98;;;23.00;97.20;;;;;;1714364;28;20201;-68
2023/06/09 07:28:39;;;;;;;37.77;10.57;;;23.00;97.20;;;;;;1714357;28;20202;-68
2023/06/09 07:29:30;;;;;;;34.42;10.20;;;23.10;97.20;;;;;;1714313;28;20202;-68
2023/06/09 07:30:21;;;;;;;36.53;10.97;;;23.10;97.20;;;;;;1713932;28;20208;-68
2023/06/09 07:31:13;;;;;;;32.95;10.57;;;23.10;97.20;;;;;;1714445;28;20260;-68
2023/06/09 07:32:05;;;;;;;69.05;12.35;;;23.20;97.20;;;;;;1714327;28;20205;-68
2023/06/09 07:32:56;;;;;;;99.15;13.88;;;23.20;97.20;;;;;;1714319;28;20226;-69
2023/06/09 07:33:48;;;;;;;50.47;11.20;;;23.30;97.20;;;;;;1714367;28;20208;-68
2023/06/09 07:34:39;;;;;;;52.70;12.90;;;23.30;97.20;;;;;;1714429;28;20206;-68
2023/06/09 07:35:32;;;;;;;58.77;13.37;;;23.30;97.20;;;;;;1714192;28;20194;-68
2023/06/09 07:36:24;;;;;;;64.03;14.00;;;23.30;97.20;;;;;;1714366;28;20209;-68
2023/06/09 07:37:15;;;;;;;22.70;7.95;;;23.40;97.20;;;;;;1714122;28;20208;-68
2023/06/09 07:38:08;;;;;;;22.52;7.95;;;23.40;97.20;;;;;;1714255;28;20205;-67
2023/06/09 07:39:00;;;;;;;35.33;10.07;;;23.40;97.20;;;;;;1714348;28;20229;-68
2023/06/09 07:39:50;;;;;;;13.45;7.20;;;23.40;97.20;;;;;;1714372;28;20206;-68
2023/06/09 07:40:42;;;;;;;84.60;15.00;;;23.40;97.20;;;;;;1714078;28;20237;-68
2023/06/09 07:41:33;;;;;;;83.15;17.75;;;23.50;97.20;;;;;;1714383;28;20206;-68
2023/06/09 07:42:25;;;;;;;213.40;28.90;;;23.50;97.20;;;;;;1714255;28;20698;-68
2023/06/09 07:43:15;;;;;;;228.05;28.58;;;23.50;97.20;;;;;;1714396;28;20198;-68
2023/06/09 07:44:08;;;;;;;265.33;35.10;;;23.50;97.20;;;;;;1714290;28;20202;-68
2023/06/09 07:44:59;;;;;;;132.10;17.98;;;23.50;97.20;;;;;;1714119;28;20289;-68
2023/06/09 07:45:51;;;;;;;171.23;22.40;;;23.50;97.20;;;;;;1714314;28;20237;-68
2023/06/09 07:46:41;;;;;;;24.08;8.32;;;23.60;97.20;;;;;;1714242;28;20449;-68
2023/06/09 07:47:33;;;;;;;25.23;7.30;;;23.60;97.20;;;;;;1714144;28;20194;-68
2023/06/09 07:48:24;;;;;;;17.90;6.38;;;23.60;97.20;;;;;;1714152;28;20229;-68
2023/06/09 07:49:16;;;;;;;8.23;4.93;;;23.60;97.20;;;;;;1714055;28;20263;-68
2023/06/09 07:50:08;;;;;;;5.45;5.05;;;23.60;97.20;;;;;;1714270;28;20701;-68
2023/06/09 07:51:03;;;;;;;45.40;10.68;;;23.60;97.20;;;;;;1714282;28;20222;-68
2023/06/09 07:51:53;;;;;;;55.15;10.68;;;23.60;97.20;;;;;;1714221;28;20304;-68
2023/06/09 07:52:45;;;;;;;169.60;24.40;;;23.60;97.20;;;;;;1714235;28;20197;-68
2023/06/09 07:53:37;;;;;;;91.63;15.75;;;23.60;97.20;;;;;;1714330;28;20209;-68
2023/06/09 07:54:29;;;;;;;36.15;9.05;;;23.60;97.20;;;;;;1713897;28;20256;-68
2023/06/09 07:55:20;;;;;;;44.90;9.73;;;23.60;97.20;;;;;;1714214;28;20213;-68
2023/06/09 07:56:12;;;;;;;10.93;5.23;;;23.60;97.20;;;;;;1714358;28;20284;-68
2023/06/09 07:57:03;;;;;;;57.13;10.57;;;23.70;97.20;;;;;;1713957;28;20464;-68
2023/06/09 07:57:55;;;;;;;155.88;23.13;;;23.70;97.20;;;;;;1714216;28;20290;-68
2023/06/09 07:58:46;;;;;;;231.82;30.67;;;23.80;97.20;;;;;;1713925;28;20201;-68
2023/06/09 07:59:37;;;;;;;161.07;25.33;;;23.80;97.20;;;;;;1714295;28;20245;-68
2023/06/09 08:00:28;;;;;;;172.65;25.20;;;23.80;97.20;;;;;;1714165;28;20202;-69
2023/06/09 08:01:20;;;;;;;57.43;11.57;;;23.90;97.20;;;;;;1714328;28;20202;-68
2023/06/09 08:02:10;;;;;;;88.82;18.30;;;23.90;97.20;;;;;;1714288;28;20201;-68
2023/06/09 08:03:03;;;;;;;29.90;8.23;;;24.00;97.20;;;;;;1714325;28;20212;-68
2023/06/09 08:03:55;;;;;;;137.60;18.77;;;24.00;97.20;;;;;;1714025;28;20206;-68
2023/06/09 08:04:47;;;;;;;109.22;18.15;;;24.10;97.20;;;;;;1714226;28;20353;-68
2023/06/09 08:05:37;;;;;;;86.20;14.95;;;24.10;97.20;;;;;;1714286;28;20202;-68
2023/06/09 08:06:30;;;;;;;69.23;14.10;;;24.20;97.20;;;;;;1714301;28;20202;-68
2023/06/09 08:07:21;;;;;;;89.43;17.20;;;24.20;97.20;;;;;;1713890;28;20198;-68
2023/06/09 08:08:13;;;;;;;107.53;16.30;;;24.20;97.20;;;;;;1714231;28;20216;-68
2023/06/09 08:09:04;;;;;;;29.77;8.85;;;24.30;97.20;;;;;;1714006;28;20612;-68
2023/06/09 08:09:56;;;;;;;39.07;9.37;;;24.30;97.20;;;;;;1714244;28;20205;-68
2023/06/09 08:10:47;;;;;;;66.70;13.23;;;24.40;97.20;;;;;;1714092;28;20508;-68
2023/06/09 08:11:39;;;;;;;63.97;14.37;;;24.40;97.20;;;;;;1714183;28;20216;-68
2023/06/09 08:12:30;;;;;;;91.50;15.18;;;24.50;97.20;;;;;;1713883;28;20378;-68
2023/06/09 08:13:21;;;;;;;39.47;11.20;;;24.50;97.20;;;;;;1714030;28;20221;-68
2023/06/09 08:14:13;;;;;;;89.57;17.25;;;24.50;97.20;;;;;;1714184;28;20675;-68
2023/06/09 08:15:05;;;;;;;21.58;7.38;;;24.60;97.20;;;;;;1714298;28;20205;-68
2023/06/09 08:15:56;;;;;;;14.93;6.60;;;24.60;97.20;;;;;;1714132;28;20206;-69
2023/06/09 08:16:48;;;;;;;59.07;12.20;;;24.60;97.20;;;;;;1713841;28;20201;-68
2023/06/09 08:17:39;;;;;;;36.92;11.00;;;24.70;97.20;;;;;;1713961;28;20567;-68
2023/06/09 08:18:30;;;;;;;23.30;7.70;;;24.70;97.20;;;;;;1714063;28;20264;-68
2023/06/09 08:19:21;;;;;;;11.90;6.53;;;24.70;97.20;;;;;;1714142;28;20206;-68
2023/06/09 08:20:13;;;;;;;13.03;6.63;;;24.70;97.20;;;;;;1714302;28;20202;-68
2023/06/09 08:21:04;;;;;;;19.50;6.70;;;24.70;97.20;;;;;;1713704;28;20451;-68
2023/06/09 08:21:57;;;;;;;18.40;7.77;;;24.80;97.20;;;;;;1714108;28;20292;-68
2023/06/09 08:22:48;;;;;;;39.72;9.05;;;24.80;97.20;;;;;;1714089;28;20209;-68
2023/06/09 08:23:43;;;;;;;16.43;7.50;;;24.80;97.20;;;;;;1714156;28;20209;-68
2023/06/09 08:24:33;;;;;;;26.60;7.90;;;24.90;97.20;;;;;;1714320;28;20259;-68
2023/06/09 08:25:25;;;;;;;27.40;8.37;;;24.90;97.20;;;;;;1714179;28;20256;-68
2023/06/09 08:26:16;;;;;;;40.05;9.35;;;25.00;97.20;;;;;;1713928;28;20203;-68
2023/06/09 08:27:08;;;;;;;33.60;8.37;;;25.00;97.20;;;;;;1713527;28;20201;-68
2023/06/09 08:27:58;;;;;;;18.60;7.10;;;25.00;97.20;;;;;;1714151;28;20241;-68
2023/06/09 08:28:51;;;;;;;17.73;6.93;;;25.10;97.20;;;;;;1714132;28;20202;-68
2023/06/09 08:29:41;;;;;;;15.30;6.97;;;25.10;97.20;;;;;;1714088;28;20202;-68
2023/06/09 08:30:33;;;;;;;11.70;6.03;;;25.10;97.20;;;;;;1713989;28;20224;-68
2023/06/09 08:31:24;;;;;;;11.02;5.47;;;25.20;97.20;;;;;;1714050;28;20213;-68
2023/06/09 08:32:16;;;;;;;18.07;6.57;;;25.20;97.20;;;;;;1713416;28;20198;-69
2023/06/09 08:33:07;;;;;;;23.25;7.85;;;25.20;97.20;;;;;;1713865;28;20212;-69
2023/06/09 08:33:59;;;;;;;17.60;6.75;;;25.30;97.20;;;;;;1714147;28;20220;-68
2023/06/09 08:34:50;;;;;;;29.90;7.25;;;25.30;97.20;;;;;;1714023;28;20202;-69
2023/06/09 08:35:42;;;;;;;25.33;7.53;;;25.30;97.20;;;;;;1713997;28;20205;-68
2023/06/09 08:36:33;;;;;;;12.70;6.15;;;25.30;97.20;;;;;;1714099;28;20206;-69
2023/06/09 08:37:26;;;;;;;26.47;7.47;;;25.40;97.20;;;;;;1713552;28;20201;-69
2023/06/09 08:38:17;;;;;;;17.58;6.70;;;25.40;97.20;;;;;;1713995;28;20553;-68
2023/06/09 08:39:09;;;;;;;14.83;6.90;;;25.40;97.20;;;;;;1714120;28;20574;-68
2023/06/09 08:40:02;;;;;;;26.30;7.73;;;25.40;97.20;;;;;;1713996;28;20232;-69
2023/06/09 08:40:57;;;;;;;15.65;6.40;;;25.50;97.20;;;;;;1713758;28;20472;-68
2023/06/09 08:41:50;;;;;;;18.20;6.70;;;25.50;97.20;;;;;;1713933;28;20217;-68
2023/06/09 08:42:46;;;;;;;18.13;6.00;;;25.50;97.20;;;;;;1714016;28;20448;-69
2023/06/09 08:43:37;;;;;;;35.33;8.20;;;25.60;97.20;;;;;;1714098;28;20454;-68
2023/06/09 08:44:31;;;;;;;42.20;9.60;;;25.60;97.20;;;;;;1713944;28;20445;-69
2023/06/09 08:45:22;;;;;;;24.58;7.82;;;25.60;97.20;;;;;;1713960;28;20489;-69
2023/06/09 08:46:17;;;;;;;7.90;5.10;;;25.60;97.20;;;;;;1713840;28;20198;-68
2023/06/09 08:47:10;;;;;;;24.80;7.30;;;25.60;97.20;;;;;;1713766;28;20445;-69
2023/06/09 08:48:03;;;;;;;52.80;10.30;;;25.60;97.20;;;;;;1713923;28;20862;-69
2023/06/09 08:48:57;;;;;;;99.07;12.90;;;25.60;97.20;;;;;;1713935;28;20454;-68
2023/06/09 08:49:51;;;;;;;25.90;7.00;;;25.70;97.20;;;;;;1714011;28;20213;-68
2023/06/09 08:50:42;;;;;;;22.90;7.07;;;25.70;97.20;;;;;;1713744;28;20512;-68
2023/06/09 08:51:35;;;;;;;70.40;12.63;;;25.70;97.20;;;;;;1707393;28;20450;-69
2023/06/09 08:52:29;;;;;;;91.20;15.73;;;25.80;97.20;;;;;;1707193;29;20454;-69
2023/06/09 08:53:21;;;;;;;45.53;8.17;;;25.80;97.20;;;;;;1707180;29;20297;-69
2023/06/09 08:54:13;;;;;;;44.63;11.03;;;25.80;97.20;;;;;;1707380;28;20455;-69
2023/06/09 08:55:06;;;;;;;63.20;12.70;;;25.80;97.20;;;;;;1709385;28;20460;-69
2023/06/09 08:55:59;;;;;;;58.53;11.27;;;25.80;97.20;;;;;;1713908;28;20296;-68
2023/06/09 08:56:52;;;;;;;52.40;9.83;;;25.80;97.20;;;;;;1713763;28;20805;-68
2023/06/09 08:57:43;;;;;;;40.60;9.65;;;25.90;97.20;;;;;;1713977;28;20476;-69
2023/06/09 08:58:35;;;;;;;56.10;10.77;;;25.90;97.20;;;;;;1713988;28;20281;-68
2023/06/09 08:59:33;;;;;;;23.33;7.20;;;25.90;97.20;;;;;;1713925;28;20213;-68
2023/06/09 09:00:25;;;;;;;11.27;5.40;;;25.90;97.20;;;;;;1713702;28;20503;-68
2023/06/09 09:01:17;;;;;;;14.52;5.70;;;26.00;97.20;;;;;;1714024;28;20201;-68
2023/06/09 09:02:10;;;;;;;23.20;6.20;;;26.00;97.20;;;;;;1713859;28;20205;-68
2023/06/09 09:03:01;;;;;;;9.30;5.40;;;26.00;97.20;;;;;;1713963;28;20825;-69
2023/06/09 09:03:53;;;;;;;39.97;9.07;;;26.00;97.20;;;;;;1713990;28;20445;-68
2023/06/09 09:04:44;;;;;;;4.70;4.30;;;26.00;97.20;;;;;;1713865;28;20202;-68
2023/06/09 09:05:36;;;;;;;5.00;4.50;;;26.00;97.20;;;;;;1713873;28;20836;-68
2023/06/09 09:06:26;;;;;;;5.07;4.13;;;26.00;97.20;;;;;;1713895;28;20208;-68
2023/06/09 09:07:18;;;;;;;5.00;4.40;;;26.00;97.20;;;;;;1713717;28;20456;-68
2023/06/09 09:08:10;;;;;;;4.40;4.10;;;26.00;97.20;;;;;;1713872;28;20205;-68
2023/06/09 09:09:02;;;;;;;5.20;4.70;;;26.00;97.20;;;;;;1713681;28;20445;-69
2023/06/09 09:09:54;;;;;;;61.77;12.80;;;26.00;97.20;;;;;;1714037;28;20868;-69
2023/06/09 09:10:46;;;;;;;172.50;22.00;;;26.00;97.20;;;;;;1713780;28;20465;-69
2023/06/09 09:11:37;;;;;;;156.63;25.40;;;26.00;97.20;;;;;;1713969;28;20997;-69
2023/06/09 09:12:44;;;;;;;196.43;26.33;;;26.10;97.20;;;;;;1713823;28;20537;-68
2023/06/09 09:13:35;;;;;;;153.03;19.93;;;26.10;97.20;;;;;;1713878;28;20517;-69
2023/06/09 09:14:27;;;;;;;143.30;22.40;;;26.20;97.20;;;;;;1713703;28;20449;-68
2023/06/09 09:15:18;;;;;;;81.47;15.87;;;26.20;97.20;;;;;;1713886;28;20216;-68
2023/06/09 09:16:14;;;;;;;118.90;19.80;;;26.30;97.20;;;;;;1714019;28;20857;-69
2023/06/09 09:17:10;;;;;;;78.13;14.83;;;26.30;97.20;;;;;;1713609;28;20453;-68
2023/06/09 09:18:06;;;;;;;35.73;8.37;;;26.30;97.20;;;;;;1713806;28;20476;-69
2023/06/09 09:18:57;;;;;;;80.23;14.97;;;26.40;97.20;;;;;;1713750;28;20461;-69
2023/06/09 09:19:49;;;;;;;49.27;9.63;;;26.40;97.20;;;;;;1713911;28;20464;-69
2023/06/09 09:20:42;;;;;;;31.50;8.47;;;26.40;97.20;;;;;;1713787;28;20476;-69
2023/06/09 09:21:37;;;;;;;87.77;16.70;;;26.40;97.20;;;;;;1713642;28;20863;-68
2023/06/09 09:22:28;;;;;;;85.50;15.20;;;26.40;97.20;;;;;;1713862;28;20596;-68
2023/06/09 09:23:30;;;;;;;87.13;15.00;;;26.50;97.20;;;;;;1713597;28;20492;-69
2023/06/09 09:24:29;;;;;;;38.63;8.20;;;26.50;97.20;;;;;;1713922;28;20233;-69
2023/06/09 09:25:22;;;;;;;49.20;11.77;;;26.50;97.20;;;;;;1713835;28;20446;-68